sensor_id;sensor_type;location;lat;lon;timestamp;P1;durP1;ratioP1;P2;durP2;ratioP2
52512;SDS011;38422;53.172;6.974;2023-08-08T00:01:03;2.55;;;1.40;;
52512;SDS011;38422;53.172;6.974;2023-08-08T00:03:29;2.83;;;1.50;;
52512;SDS011;38422;53.172;6.974;2023-08-08T00:05:55;3.25;;;1.40;;
52512;SDS011;38422;53.172;6.974;2023-08-08T00:08:21;3.67;;;1.65;;
52512;SDS011;38422;53.172;6.974;2023-08-08T00:10:46;3.65;;;1.40;;
52512;SDS011;38422;53.172;6.974;2023-08-08T00:13:12;5.97;;;1.77;;
52512;SDS011;38422;53.172;6.974;2023-08-08T00:15:38;3.63;;;1.40;;
52512;SDS011;38422;53.172;6.974;2023-08-08T00:18:04;3.53;;;1.55;;
52512;SDS011;38422;53.172;6.974;2023-08-08T00:20:30;5.15;;;1.77;;
52512;SDS011;38422;53.172;6.974;2023-08-08T00:22:55;3.88;;;1.70;;
52512;SDS011;38422;53.172;6.974;2023-08-08T00:25:21;3.03;;;1.30;;
52512;SDS011;38422;53.172;6.974;2023-08-08T00:27:47;4.30;;;1.67;;
52512;SDS011;38422;53.172;6.974;2023-08-08T00:32:40;6.43;;;1.60;;
52512;SDS011;38422;53.172;6.974;2023-08-08T00:35:06;4.72;;;1.60;;
52512;SDS011;38422;53.172;6.974;2023-08-08T00:37:32;4.10;;;1.60;;
52512;SDS011;38422;53.172;6.974;2023-08-08T00:39:58;2.70;;;1.70;;
52512;SDS011;38422;53.172;6.974;2023-08-08T00:42:23;3.90;;;1.38;;
52512;SDS011;38422;53.172;6.974;2023-08-08T00:44:49;5.30;;;1.27;;
52512;SDS011;38422;53.172;6.974;2023-08-08T00:47:15;3.55;;;1.33;;
52512;SDS011;38422;53.172;6.974;2023-08-08T00:49:41;4.00;;;1.50;;
52512;SDS011;38422;53.172;6.974;2023-08-08T00:52:09;4.72;;;1.67;;
52512;SDS011;38422;53.172;6.974;2023-08-08T00:54:35;4.45;;;1.85;;
52512;SDS011;38422;53.172;6.974;2023-08-08T00:57:01;5.35;;;1.58;;
52512;SDS011;38422;53.172;6.974;2023-08-08T00:59:27;5.03;;;1.40;;
52512;SDS011;38422;53.172;6.974;2023-08-08T01:01:52;3.83;;;1.50;;
52512;SDS011;38422;53.172;6.974;2023-08-08T01:04:18;3.25;;;1.45;;
52512;SDS011;38422;53.172;6.974;2023-08-08T01:07:19;3.42;;;1.50;;
52512;SDS011;38422;53.172;6.974;2023-08-08T01:09:57;4.22;;;1.45;;
52512;SDS011;38422;53.172;6.974;2023-08-08T01:12:32;2.47;;;1.33;;
52512;SDS011;38422;53.172;6.974;2023-08-08T01:15:00;3.42;;;1.60;;
52512;SDS011;38422;53.172;6.974;2023-08-08T01:17:27;5.32;;;1.58;;
52512;SDS011;38422;53.172;6.974;2023-08-08T01:19:53;4.25;;;1.73;;
52512;SDS011;38422;53.172;6.974;2023-08-08T01:22:25;4.32;;;2.00;;
52512;SDS011;38422;53.172;6.974;2023-08-08T01:25:02;2.15;;;1.45;;
52512;SDS011;38422;53.172;6.974;2023-08-08T01:29:55;3.42;;;1.67;;
52512;SDS011;38422;53.172;6.974;2023-08-08T01:32:21;4.32;;;1.73;;
52512;SDS011;38422;53.172;6.974;2023-08-08T01:34:47;3.33;;;1.58;;
52512;SDS011;38422;53.172;6.974;2023-08-08T01:38:14;3.47;;;1.60;;
52512;SDS011;38422;53.172;6.974;2023-08-08T01:40:10;3.45;;;1.75;;
52512;SDS011;38422;53.172;6.974;2023-08-08T01:42:40;3.80;;;1.50;;
52512;SDS011;38422;53.172;6.974;2023-08-08T01:45:08;4.63;;;1.83;;
52512;SDS011;38422;53.172;6.974;2023-08-08T01:47:35;4.00;;;1.70;;
52512;SDS011;38422;53.172;6.974;2023-08-08T01:50:01;3.20;;;1.67;;
52512;SDS011;38422;53.172;6.974;2023-08-08T01:52:26;4.50;;;1.80;;
52512;SDS011;38422;53.172;6.974;2023-08-08T01:54:52;3.65;;;1.58;;
52512;SDS011;38422;53.172;6.974;2023-08-08T01:57:18;3.78;;;1.77;;
52512;SDS011;38422;53.172;6.974;2023-08-08T01:59:46;4.72;;;1.80;;
52512;SDS011;38422;53.172;6.974;2023-08-08T02:02:12;4.80;;;1.80;;
52512;SDS011;38422;53.172;6.974;2023-08-08T02:04:38;4.15;;;1.60;;
52512;SDS011;38422;53.172;6.974;2023-08-08T02:07:04;3.95;;;1.70;;
52512;SDS011;38422;53.172;6.974;2023-08-08T02:09:29;3.13;;;1.60;;
52512;SDS011;38422;53.172;6.974;2023-08-08T02:11:55;3.67;;;1.77;;
52512;SDS011;38422;53.172;6.974;2023-08-08T02:14:21;6.25;;;1.83;;
52512;SDS011;38422;53.172;6.974;2023-08-08T02:16:47;3.95;;;1.70;;
52512;SDS011;38422;53.172;6.974;2023-08-08T02:19:12;2.03;;;1.55;;
52512;SDS011;38422;53.172;6.974;2023-08-08T02:21:39;7.68;;;1.73;;
52512;SDS011;38422;53.172;6.974;2023-08-08T02:24:05;4.60;;;1.63;;
52512;SDS011;38422;53.172;6.974;2023-08-08T02:26:31;5.43;;;1.83;;
52512;SDS011;38422;53.172;6.974;2023-08-08T02:28:57;3.20;;;1.70;;
52512;SDS011;38422;53.172;6.974;2023-08-08T02:31:22;5.15;;;1.95;;
52512;SDS011;38422;53.172;6.974;2023-08-08T02:33:48;6.03;;;2.08;;
52512;SDS011;38422;53.172;6.974;2023-08-08T02:36:17;5.05;;;2.03;;
52512;SDS011;38422;53.172;6.974;2023-08-08T02:38:43;3.97;;;1.80;;
52512;SDS011;38422;53.172;6.974;2023-08-08T02:41:10;6.20;;;2.10;;
52512;SDS011;38422;53.172;6.974;2023-08-08T02:43:36;6.07;;;2.00;;
52512;SDS011;38422;53.172;6.974;2023-08-08T02:46:01;4.10;;;1.90;;
52512;SDS011;38422;53.172;6.974;2023-08-08T02:48:28;4.00;;;2.08;;
52512;SDS011;38422;53.172;6.974;2023-08-08T02:50:55;3.85;;;2.00;;
52512;SDS011;38422;53.172;6.974;2023-08-08T02:53:20;4.93;;;2.20;;
52512;SDS011;38422;53.172;6.974;2023-08-08T02:55:46;4.68;;;1.90;;
52512;SDS011;38422;53.172;6.974;2023-08-08T02:58:12;3.92;;;1.95;;
52512;SDS011;38422;53.172;6.974;2023-08-08T03:00:38;6.53;;;1.88;;
52512;SDS011;38422;53.172;6.974;2023-08-08T03:03:04;5.50;;;2.00;;
52512;SDS011;38422;53.172;6.974;2023-08-08T03:05:29;5.07;;;2.25;;
52512;SDS011;38422;53.172;6.974;2023-08-08T03:07:55;5.65;;;1.80;;
52512;SDS011;38422;53.172;6.974;2023-08-08T03:10:21;5.82;;;2.08;;
52512;SDS011;38422;53.172;6.974;2023-08-08T03:12:47;4.43;;;1.70;;
52512;SDS011;38422;53.172;6.974;2023-08-08T03:15:13;4.13;;;1.70;;
52512;SDS011;38422;53.172;6.974;2023-08-08T03:17:38;5.60;;;1.90;;
52512;SDS011;38422;53.172;6.974;2023-08-08T03:20:05;7.63;;;1.98;;
52512;SDS011;38422;53.172;6.974;2023-08-08T03:22:32;5.88;;;2.00;;
52512;SDS011;38422;53.172;6.974;2023-08-08T03:24:58;4.65;;;1.80;;
52512;SDS011;38422;53.172;6.974;2023-08-08T03:27:24;4.85;;;1.70;;
52512;SDS011;38422;53.172;6.974;2023-08-08T03:29:50;5.72;;;1.80;;
52512;SDS011;38422;53.172;6.974;2023-08-08T03:32:16;5.57;;;1.73;;
52512;SDS011;38422;53.172;6.974;2023-08-08T03:34:42;5.18;;;1.55;;
52512;SDS011;38422;53.172;6.974;2023-08-08T03:37:07;4.47;;;1.55;;
52512;SDS011;38422;53.172;6.974;2023-08-08T03:39:33;5.47;;;1.30;;
52512;SDS011;38422;53.172;6.974;2023-08-08T03:41:59;5.28;;;1.58;;
52512;SDS011;38422;53.172;6.974;2023-08-08T03:44:24;3.63;;;1.23;;
52512;SDS011;38422;53.172;6.974;2023-08-08T03:46:50;4.15;;;1.58;;
52512;SDS011;38422;53.172;6.974;2023-08-08T03:49:16;5.13;;;1.50;;
52512;SDS011;38422;53.172;6.974;2023-08-08T03:51:42;4.55;;;1.50;;
52512;SDS011;38422;53.172;6.974;2023-08-08T03:54:07;6.05;;;1.70;;
52512;SDS011;38422;53.172;6.974;2023-08-08T03:56:33;5.63;;;1.70;;
52512;SDS011;38422;53.172;6.974;2023-08-08T03:58:59;4.90;;;1.60;;
52512;SDS011;38422;53.172;6.974;2023-08-08T04:01:25;5.18;;;1.65;;
52512;SDS011;38422;53.172;6.974;2023-08-08T04:03:50;4.25;;;1.58;;
52512;SDS011;38422;53.172;6.974;2023-08-08T04:06:16;5.60;;;1.65;;
52512;SDS011;38422;53.172;6.974;2023-08-08T04:08:42;3.58;;;1.50;;
52512;SDS011;38422;53.172;6.974;2023-08-08T04:11:07;6.45;;;1.60;;
52512;SDS011;38422;53.172;6.974;2023-08-08T04:13:33;5.07;;;1.90;;
52512;SDS011;38422;53.172;6.974;2023-08-08T04:16:00;5.15;;;1.63;;
52512;SDS011;38422;53.172;6.974;2023-08-08T04:18:25;4.97;;;1.70;;
52512;SDS011;38422;53.172;6.974;2023-08-08T04:20:51;4.57;;;1.58;;
52512;SDS011;38422;53.172;6.974;2023-08-08T04:23:17;4.43;;;1.70;;
52512;SDS011;38422;53.172;6.974;2023-08-08T04:25:43;3.95;;;1.38;;
52512;SDS011;38422;53.172;6.974;2023-08-08T04:28:09;5.43;;;1.55;;
52512;SDS011;38422;53.172;6.974;2023-08-08T04:30:34;5.07;;;1.50;;
52512;SDS011;38422;53.172;6.974;2023-08-08T04:33:00;3.22;;;1.15;;
52512;SDS011;38422;53.172;6.974;2023-08-08T04:35:26;4.88;;;1.42;;
52512;SDS011;38422;53.172;6.974;2023-08-08T04:37:52;2.97;;;1.38;;
52512;SDS011;38422;53.172;6.974;2023-08-08T04:40:17;3.53;;;1.50;;
52512;SDS011;38422;53.172;6.974;2023-08-08T04:42:43;3.63;;;1.23;;
52512;SDS011;38422;53.172;6.974;2023-08-08T04:45:09;3.22;;;1.20;;
52512;SDS011;38422;53.172;6.974;2023-08-08T04:47:35;4.18;;;1.27;;
52512;SDS011;38422;53.172;6.974;2023-08-08T04:50:00;2.60;;;0.90;;
52512;SDS011;38422;53.172;6.974;2023-08-08T04:52:26;4.50;;;1.23;;
52512;SDS011;38422;53.172;6.974;2023-08-08T04:54:52;4.57;;;1.20;;
52512;SDS011;38422;53.172;6.974;2023-08-08T04:57:17;5.57;;;1.20;;
52512;SDS011;38422;53.172;6.974;2023-08-08T04:59:43;4.15;;;1.60;;
52512;SDS011;38422;53.172;6.974;2023-08-08T05:02:09;3.08;;;1.13;;
52512;SDS011;38422;53.172;6.974;2023-08-08T05:04:36;7.82;;;1.23;;
52512;SDS011;38422;53.172;6.974;2023-08-08T05:07:02;6.38;;;1.38;;
52512;SDS011;38422;53.172;6.974;2023-08-08T05:09:27;5.35;;;1.42;;
52512;SDS011;38422;53.172;6.974;2023-08-08T05:11:53;3.88;;;1.23;;
52512;SDS011;38422;53.172;6.974;2023-08-08T05:14:19;5.05;;;1.33;;
52512;SDS011;38422;53.172;6.974;2023-08-08T05:16:45;6.25;;;1.50;;
52512;SDS011;38422;53.172;6.974;2023-08-08T05:19:11;4.10;;;1.30;;
52512;SDS011;38422;53.172;6.974;2023-08-08T05:21:37;5.05;;;0.90;;
52512;SDS011;38422;53.172;6.974;2023-08-08T05:24:03;3.30;;;1.30;;
52512;SDS011;38422;53.172;6.974;2023-08-08T05:26:29;4.28;;;1.10;;
52512;SDS011;38422;53.172;6.974;2023-08-08T05:28:55;4.60;;;1.17;;
52512;SDS011;38422;53.172;6.974;2023-08-08T05:31:20;4.80;;;1.13;;
52512;SDS011;38422;53.172;6.974;2023-08-08T05:33:47;3.63;;;1.10;;
52512;SDS011;38422;53.172;6.974;2023-08-08T05:36:14;3.90;;;1.00;;
52512;SDS011;38422;53.172;6.974;2023-08-08T05:38:39;5.30;;;1.55;;
52512;SDS011;38422;53.172;6.974;2023-08-08T05:41:06;3.88;;;1.38;;
52512;SDS011;38422;53.172;6.974;2023-08-08T05:43:32;3.20;;;1.15;;
52512;SDS011;38422;53.172;6.974;2023-08-08T05:45:58;4.15;;;1.13;;
52512;SDS011;38422;53.172;6.974;2023-08-08T05:48:24;4.25;;;1.15;;
52512;SDS011;38422;53.172;6.974;2023-08-08T05:50:51;4.68;;;1.02;;
52512;SDS011;38422;53.172;6.974;2023-08-08T05:53:16;5.28;;;1.08;;
52512;SDS011;38422;53.172;6.974;2023-08-08T05:55:42;3.60;;;1.20;;
52512;SDS011;38422;53.172;6.974;2023-08-08T05:58:08;5.68;;;1.25;;
52512;SDS011;38422;53.172;6.974;2023-08-08T06:00:34;4.60;;;1.40;;
52512;SDS011;38422;53.172;6.974;2023-08-08T06:03:00;4.65;;;1.27;;
52512;SDS011;38422;53.172;6.974;2023-08-08T06:05:26;7.30;;;1.55;;
52512;SDS011;38422;53.172;6.974;2023-08-08T06:07:53;4.50;;;1.05;;
52512;SDS011;38422;53.172;6.974;2023-08-08T06:10:20;5.30;;;1.17;;
52512;SDS011;38422;53.172;6.974;2023-08-08T06:12:47;3.70;;;1.00;;
52512;SDS011;38422;53.172;6.974;2023-08-08T06:15:12;3.95;;;1.00;;
52512;SDS011;38422;53.172;6.974;2023-08-08T06:17:38;4.15;;;0.85;;
52512;SDS011;38422;53.172;6.974;2023-08-08T06:20:04;6.75;;;1.10;;
52512;SDS011;38422;53.172;6.974;2023-08-08T06:22:31;4.35;;;1.10;;
52512;SDS011;38422;53.172;6.974;2023-08-08T06:24:57;5.50;;;1.10;;
52512;SDS011;38422;53.172;6.974;2023-08-08T06:27:23;7.15;;;1.10;;
52512;SDS011;38422;53.172;6.974;2023-08-08T06:29:49;6.80;;;1.10;;
52512;SDS011;38422;53.172;6.974;2023-08-08T06:32:14;4.00;;;0.98;;
52512;SDS011;38422;53.172;6.974;2023-08-08T06:34:40;2.10;;;0.90;;
52512;SDS011;38422;53.172;6.974;2023-08-08T06:37:06;3.85;;;0.90;;
52512;SDS011;38422;53.172;6.974;2023-08-08T06:39:31;4.97;;;0.90;;
52512;SDS011;38422;53.172;6.974;2023-08-08T06:41:57;5.30;;;1.00;;
52512;SDS011;38422;53.172;6.974;2023-08-08T06:44:23;2.75;;;1.00;;
52512;SDS011;38422;53.172;6.974;2023-08-08T06:46:49;3.83;;;0.93;;
52512;SDS011;38422;53.172;6.974;2023-08-08T06:49:14;3.70;;;0.85;;
52512;SDS011;38422;53.172;6.974;2023-08-08T06:51:40;3.95;;;0.90;;
52512;SDS011;38422;53.172;6.974;2023-08-08T06:54:05;2.85;;;0.85;;
52512;SDS011;38422;53.172;6.974;2023-08-08T06:56:32;5.22;;;1.20;;
52512;SDS011;38422;53.172;6.974;2023-08-08T06:58:58;4.10;;;0.98;;
52512;SDS011;38422;53.172;6.974;2023-08-08T07:01:24;3.95;;;0.80;;
52512;SDS011;38422;53.172;6.974;2023-08-08T07:03:50;7.10;;;1.10;;
52512;SDS011;38422;53.172;6.974;2023-08-08T07:06:18;3.30;;;0.98;;
52512;SDS011;38422;53.172;6.974;2023-08-08T07:08:44;6.00;;;0.95;;
52512;SDS011;38422;53.172;6.974;2023-08-08T07:11:10;4.85;;;1.02;;
52512;SDS011;38422;53.172;6.974;2023-08-08T07:13:36;7.13;;;1.02;;
52512;SDS011;38422;53.172;6.974;2023-08-08T07:16:01;3.60;;;0.93;;
52512;SDS011;38422;53.172;6.974;2023-08-08T07:18:27;3.38;;;0.85;;
52512;SDS011;38422;53.172;6.974;2023-08-08T07:20:53;7.70;;;1.20;;
52512;SDS011;38422;53.172;6.974;2023-08-08T07:23:19;5.55;;;0.82;;
52512;SDS011;38422;53.172;6.974;2023-08-08T07:25:47;4.55;;;0.82;;
52512;SDS011;38422;53.172;6.974;2023-08-08T07:28:13;4.80;;;0.90;;
52512;SDS011;38422;53.172;6.974;2023-08-08T07:30:39;5.75;;;1.00;;
52512;SDS011;38422;53.172;6.974;2023-08-08T07:33:06;5.65;;;1.00;;
52512;SDS011;38422;53.172;6.974;2023-08-08T07:35:35;3.10;;;0.85;;
52512;SDS011;38422;53.172;6.974;2023-08-08T07:38:00;4.90;;;0.90;;
52512;SDS011;38422;53.172;6.974;2023-08-08T07:40:26;4.93;;;0.82;;
52512;SDS011;38422;53.172;6.974;2023-08-08T07:42:52;3.42;;;0.80;;
52512;SDS011;38422;53.172;6.974;2023-08-08T07:45:18;2.97;;;0.60;;
52512;SDS011;38422;53.172;6.974;2023-08-08T07:47:44;3.97;;;0.73;;
52512;SDS011;38422;53.172;6.974;2023-08-08T07:50:10;2.92;;;0.80;;
52512;SDS011;38422;53.172;6.974;2023-08-08T07:52:36;3.75;;;0.80;;
52512;SDS011;38422;53.172;6.974;2023-08-08T07:55:02;3.33;;;0.73;;
52512;SDS011;38422;53.172;6.974;2023-08-08T07:57:29;7.25;;;0.90;;
52512;SDS011;38422;53.172;6.974;2023-08-08T07:59:56;3.38;;;0.75;;
52512;SDS011;38422;53.172;6.974;2023-08-08T08:02:22;5.22;;;1.00;;
52512;SDS011;38422;53.172;6.974;2023-08-08T08:04:48;3.88;;;1.00;;
52512;SDS011;38422;53.172;6.974;2023-08-08T08:07:13;5.20;;;0.73;;
52512;SDS011;38422;53.172;6.974;2023-08-08T08:09:39;4.53;;;0.68;;
52512;SDS011;38422;53.172;6.974;2023-08-08T08:12:07;3.53;;;0.65;;
52512;SDS011;38422;53.172;6.974;2023-08-08T08:14:33;5.27;;;0.90;;
52512;SDS011;38422;53.172;6.974;2023-08-08T08:16:59;4.68;;;0.90;;
52512;SDS011;38422;53.172;6.974;2023-08-08T08:19:25;3.92;;;0.63;;
52512;SDS011;38422;53.172;6.974;2023-08-08T08:21:51;4.57;;;1.30;;
52512;SDS011;38422;53.172;6.974;2023-08-08T08:24:17;5.93;;;0.80;;
52512;SDS011;38422;53.172;6.974;2023-08-08T08:26:42;3.90;;;0.82;;
52512;SDS011;38422;53.172;6.974;2023-08-08T08:29:08;5.15;;;1.05;;
52512;SDS011;38422;53.172;6.974;2023-08-08T08:31:34;5.20;;;0.88;;
52512;SDS011;38422;53.172;6.974;2023-08-08T08:33:59;4.65;;;0.70;;
52512;SDS011;38422;53.172;6.974;2023-08-08T08:36:25;5.00;;;0.60;;
52512;SDS011;38422;53.172;6.974;2023-08-08T08:38:51;3.17;;;0.70;;
52512;SDS011;38422;53.172;6.974;2023-08-08T08:41:18;3.40;;;0.55;;
52512;SDS011;38422;53.172;6.974;2023-08-08T08:43:48;3.78;;;0.52;;
52512;SDS011;38422;53.172;6.974;2023-08-08T08:46:15;5.03;;;0.85;;
52512;SDS011;38422;53.172;6.974;2023-08-08T08:48:45;3.40;;;0.60;;
52512;SDS011;38422;53.172;6.974;2023-08-08T08:51:12;4.90;;;0.80;;
52512;SDS011;38422;53.172;6.974;2023-08-08T08:53:39;5.68;;;1.10;;
52512;SDS011;38422;53.172;6.974;2023-08-08T08:56:08;5.18;;;0.70;;
52512;SDS011;38422;53.172;6.974;2023-08-08T08:58:34;3.15;;;0.60;;
52512;SDS011;38422;53.172;6.974;2023-08-08T09:01:00;3.67;;;0.55;;
52512;SDS011;38422;53.172;6.974;2023-08-08T09:03:26;3.35;;;0.70;;
52512;SDS011;38422;53.172;6.974;2023-08-08T09:05:52;5.88;;;0.90;;
52512;SDS011;38422;53.172;6.974;2023-08-08T09:08:19;2.45;;;0.75;;
52512;SDS011;38422;53.172;6.974;2023-08-08T09:10:45;2.42;;;0.93;;
52512;SDS011;38422;53.172;6.974;2023-08-08T09:13:11;4.85;;;0.80;;
52512;SDS011;38422;53.172;6.974;2023-08-08T09:15:37;2.67;;;0.73;;
52512;SDS011;38422;53.172;6.974;2023-08-08T09:18:02;3.63;;;0.63;;
52512;SDS011;38422;53.172;6.974;2023-08-08T09:20:28;4.88;;;0.82;;
52512;SDS011;38422;53.172;6.974;2023-08-08T09:22:54;3.00;;;0.63;;
52512;SDS011;38422;53.172;6.974;2023-08-08T09:25:20;4.80;;;0.73;;
52512;SDS011;38422;53.172;6.974;2023-08-08T09:27:46;4.32;;;0.55;;
52512;SDS011;38422;53.172;6.974;2023-08-08T09:30:12;1.70;;;0.68;;
52512;SDS011;38422;53.172;6.974;2023-08-08T09:32:38;4.18;;;0.70;;
52512;SDS011;38422;53.172;6.974;2023-08-08T09:35:04;2.90;;;0.50;;
52512;SDS011;38422;53.172;6.974;2023-08-08T09:37:34;3.58;;;0.77;;
52512;SDS011;38422;53.172;6.974;2023-08-08T09:40:00;2.88;;;0.60;;
52512;SDS011;38422;53.172;6.974;2023-08-08T09:42:29;4.65;;;0.80;;
52512;SDS011;38422;53.172;6.974;2023-08-08T09:44:58;3.88;;;0.70;;
52512;SDS011;38422;53.172;6.974;2023-08-08T09:47:24;3.35;;;0.60;;
52512;SDS011;38422;53.172;6.974;2023-08-08T09:49:55;3.35;;;0.57;;
52512;SDS011;38422;53.172;6.974;2023-08-08T09:52:27;2.95;;;0.70;;
52512;SDS011;38422;53.172;6.974;2023-08-08T09:54:54;1.83;;;0.50;;
52512;SDS011;38422;53.172;6.974;2023-08-08T09:57:20;3.30;;;1.23;;
52512;SDS011;38422;53.172;6.974;2023-08-08T09:59:48;3.78;;;0.65;;
52512;SDS011;38422;53.172;6.974;2023-08-08T10:02:16;5.47;;;1.02;;
52512;SDS011;38422;53.172;6.974;2023-08-08T10:04:42;4.88;;;0.90;;
52512;SDS011;38422;53.172;6.974;2023-08-08T10:09:34;3.97;;;0.60;;
52512;SDS011;38422;53.172;6.974;2023-08-08T10:12:02;5.00;;;0.80;;
52512;SDS011;38422;53.172;6.974;2023-08-08T10:14:30;4.53;;;0.70;;
52512;SDS011;38422;53.172;6.974;2023-08-08T10:16:57;3.45;;;0.60;;
52512;SDS011;38422;53.172;6.974;2023-08-08T10:19:23;5.35;;;0.82;;
52512;SDS011;38422;53.172;6.974;2023-08-08T10:21:55;5.40;;;0.90;;
52512;SDS011;38422;53.172;6.974;2023-08-08T10:24:23;3.70;;;0.80;;
52512;SDS011;38422;53.172;6.974;2023-08-08T10:26:53;3.42;;;0.70;;
52512;SDS011;38422;53.172;6.974;2023-08-08T10:29:20;3.45;;;1.08;;
52512;SDS011;38422;53.172;6.974;2023-08-08T10:31:52;2.78;;;0.70;;
52512;SDS011;38422;53.172;6.974;2023-08-08T10:34:23;4.35;;;0.57;;
52512;SDS011;38422;53.172;6.974;2023-08-08T10:37:03;2.63;;;0.63;;
52512;SDS011;38422;53.172;6.974;2023-08-08T10:39:57;3.97;;;0.70;;
52512;SDS011;38422;53.172;6.974;2023-08-08T10:42:24;2.92;;;0.52;;
52512;SDS011;38422;53.172;6.974;2023-08-08T10:44:52;4.03;;;0.93;;
52512;SDS011;38422;53.172;6.974;2023-08-08T10:47:23;5.15;;;1.00;;
52512;SDS011;38422;53.172;6.974;2023-08-08T10:49:59;4.63;;;0.70;;
52512;SDS011;38422;53.172;6.974;2023-08-08T10:52:29;4.22;;;0.70;;
52512;SDS011;38422;53.172;6.974;2023-08-08T10:54:55;3.33;;;0.60;;
52512;SDS011;38422;53.172;6.974;2023-08-08T10:57:24;5.35;;;0.90;;
52512;SDS011;38422;53.172;6.974;2023-08-08T10:59:51;4.25;;;0.70;;
52512;SDS011;38422;53.172;6.974;2023-08-08T11:02:18;4.65;;;0.80;;
52512;SDS011;38422;53.172;6.974;2023-08-08T11:04:47;3.80;;;0.50;;
52512;SDS011;38422;53.172;6.974;2023-08-08T11:07:14;2.88;;;0.63;;
52512;SDS011;38422;53.172;6.974;2023-08-08T11:09:41;4.93;;;0.93;;
52512;SDS011;38422;53.172;6.974;2023-08-08T11:12:14;3.42;;;0.80;;
52512;SDS011;38422;53.172;6.974;2023-08-08T11:14:41;4.32;;;0.90;;
52512;SDS011;38422;53.172;6.974;2023-08-08T11:17:06;2.28;;;0.60;;
52512;SDS011;38422;53.172;6.974;2023-08-08T11:19:38;5.00;;;0.65;;
52512;SDS011;38422;53.172;6.974;2023-08-08T11:22:08;3.72;;;0.80;;
52512;SDS011;38422;53.172;6.974;2023-08-08T11:24:35;4.32;;;0.90;;
52512;SDS011;38422;53.172;6.974;2023-08-08T11:27:01;3.97;;;0.80;;
52512;SDS011;38422;53.172;6.974;2023-08-08T11:29:27;2.40;;;0.70;;
52512;SDS011;38422;53.172;6.974;2023-08-08T11:31:56;4.15;;;0.77;;
52512;SDS011;38422;53.172;6.974;2023-08-08T11:36:48;3.70;;;0.60;;
52512;SDS011;38422;53.172;6.974;2023-08-08T11:39:14;3.03;;;0.70;;
52512;SDS011;38422;53.172;6.974;2023-08-08T11:41:39;4.10;;;0.85;;
52512;SDS011;38422;53.172;6.974;2023-08-08T11:44:07;3.10;;;1.00;;
52512;SDS011;38422;53.172;6.974;2023-08-08T11:46:33;3.67;;;0.90;;
52512;SDS011;38422;53.172;6.974;2023-08-08T11:49:06;3.65;;;0.70;;
52512;SDS011;38422;53.172;6.974;2023-08-08T11:51:34;3.92;;;0.70;;
52512;SDS011;38422;53.172;6.974;2023-08-08T11:54:01;5.00;;;0.70;;
52512;SDS011;38422;53.172;6.974;2023-08-08T11:56:28;3.50;;;0.55;;
52512;SDS011;38422;53.172;6.974;2023-08-08T11:58:54;3.40;;;0.53;;
52512;SDS011;38422;53.172;6.974;2023-08-08T12:01:22;3.92;;;0.73;;
52512;SDS011;38422;53.172;6.974;2023-08-08T12:03:49;1.88;;;0.65;;
52512;SDS011;38422;53.172;6.974;2023-08-08T12:06:15;4.07;;;0.98;;
52512;SDS011;38422;53.172;6.974;2023-08-08T12:08:45;3.37;;;0.63;;
52512;SDS011;38422;53.172;6.974;2023-08-08T12:11:12;2.67;;;0.70;;
52512;SDS011;38422;53.172;6.974;2023-08-08T12:13:43;3.30;;;0.60;;
52512;SDS011;38422;53.172;6.974;2023-08-08T12:16:09;3.88;;;0.65;;
52512;SDS011;38422;53.172;6.974;2023-08-08T12:18:37;2.45;;;0.60;;
52512;SDS011;38422;53.172;6.974;2023-08-08T12:21:04;4.15;;;0.70;;
52512;SDS011;38422;53.172;6.974;2023-08-08T12:23:30;5.22;;;0.70;;
52512;SDS011;38422;53.172;6.974;2023-08-08T12:25:58;2.80;;;0.68;;
52512;SDS011;38422;53.172;6.974;2023-08-08T12:28:24;2.67;;;0.50;;
52512;SDS011;38422;53.172;6.974;2023-08-08T12:30:50;2.90;;;0.60;;
52512;SDS011;38422;53.172;6.974;2023-08-08T12:33:16;2.58;;;0.50;;
52512;SDS011;38422;53.172;6.974;2023-08-08T12:35:42;2.13;;;0.50;;
52512;SDS011;38422;53.172;6.974;2023-08-08T12:38:07;4.18;;;0.60;;
52512;SDS011;38422;53.172;6.974;2023-08-08T12:40:34;5.73;;;0.60;;
52512;SDS011;38422;53.172;6.974;2023-08-08T12:42:59;2.88;;;0.60;;
52512;SDS011;38422;53.172;6.974;2023-08-08T12:45:25;2.10;;;0.60;;
52512;SDS011;38422;53.172;6.974;2023-08-08T12:47:51;3.70;;;1.10;;
52512;SDS011;38422;53.172;6.974;2023-08-08T12:50:16;4.70;;;0.70;;
52512;SDS011;38422;53.172;6.974;2023-08-08T12:52:42;3.72;;;0.80;;
52512;SDS011;38422;53.172;6.974;2023-08-08T12:55:08;4.80;;;1.13;;
52512;SDS011;38422;53.172;6.974;2023-08-08T12:57:36;3.88;;;0.80;;
52512;SDS011;38422;53.172;6.974;2023-08-08T13:00:02;4.70;;;0.77;;
52512;SDS011;38422;53.172;6.974;2023-08-08T13:02:28;3.30;;;0.98;;
52512;SDS011;38422;53.172;6.974;2023-08-08T13:04:54;3.53;;;1.00;;
52512;SDS011;38422;53.172;6.974;2023-08-08T13:07:20;4.82;;;1.00;;
52512;SDS011;38422;53.172;6.974;2023-08-08T13:09:45;4.30;;;0.82;;
52512;SDS011;38422;53.172;6.974;2023-08-08T13:12:11;3.03;;;0.75;;
52512;SDS011;38422;53.172;6.974;2023-08-08T13:14:37;3.47;;;0.80;;
52512;SDS011;38422;53.172;6.974;2023-08-08T13:17:03;3.60;;;0.70;;
52512;SDS011;38422;53.172;6.974;2023-08-08T13:19:29;3.87;;;0.60;;
52512;SDS011;38422;53.172;6.974;2023-08-08T13:21:55;5.57;;;0.90;;
52512;SDS011;38422;53.172;6.974;2023-08-08T13:24:21;4.13;;;0.80;;
52512;SDS011;38422;53.172;6.974;2023-08-08T13:26:48;4.88;;;0.77;;
52512;SDS011;38422;53.172;6.974;2023-08-08T13:29:14;5.35;;;0.63;;
52512;SDS011;38422;53.172;6.974;2023-08-08T13:31:40;3.60;;;0.60;;
52512;SDS011;38422;53.172;6.974;2023-08-08T13:34:05;3.65;;;0.80;;
52512;SDS011;38422;53.172;6.974;2023-08-08T13:36:31;3.65;;;0.90;;
52512;SDS011;38422;53.172;6.974;2023-08-08T13:38:57;4.85;;;0.70;;
52512;SDS011;38422;53.172;6.974;2023-08-08T13:41:23;5.47;;;0.93;;
52512;SDS011;38422;53.172;6.974;2023-08-08T13:43:50;3.63;;;0.73;;
52512;SDS011;38422;53.172;6.974;2023-08-08T13:46:15;6.53;;;1.17;;
52512;SDS011;38422;53.172;6.974;2023-08-08T13:48:41;3.88;;;0.88;;
52512;SDS011;38422;53.172;6.974;2023-08-08T13:51:07;2.70;;;0.70;;
52512;SDS011;38422;53.172;6.974;2023-08-08T13:53:32;3.60;;;0.80;;
52512;SDS011;38422;53.172;6.974;2023-08-08T13:55:59;5.10;;;0.75;;
52512;SDS011;38422;53.172;6.974;2023-08-08T13:58:24;4.13;;;0.80;;
52512;SDS011;38422;53.172;6.974;2023-08-08T14:00:50;2.80;;;0.63;;
52512;SDS011;38422;53.172;6.974;2023-08-08T14:03:16;4.27;;;0.70;;
52512;SDS011;38422;53.172;6.974;2023-08-08T14:05:43;3.10;;;0.63;;
52512;SDS011;38422;53.172;6.974;2023-08-08T14:08:09;3.15;;;0.70;;
52512;SDS011;38422;53.172;6.974;2023-08-08T14:10:35;4.82;;;0.90;;
52512;SDS011;38422;53.172;6.974;2023-08-08T14:13:01;3.22;;;0.70;;
52512;SDS011;38422;53.172;6.974;2023-08-08T14:15:28;2.65;;;0.55;;
52512;SDS011;38422;53.172;6.974;2023-08-08T14:17:54;2.40;;;0.50;;
52512;SDS011;38422;53.172;6.974;2023-08-08T14:20:20;3.10;;;0.50;;
52512;SDS011;38422;53.172;6.974;2023-08-08T14:22:46;3.10;;;0.70;;
52512;SDS011;38422;53.172;6.974;2023-08-08T14:25:12;2.60;;;0.70;;
52512;SDS011;38422;53.172;6.974;2023-08-08T14:27:39;2.88;;;0.50;;
52512;SDS011;38422;53.172;6.974;2023-08-08T14:30:05;3.58;;;0.75;;
52512;SDS011;38422;53.172;6.974;2023-08-08T14:32:31;3.13;;;0.73;;
52512;SDS011;38422;53.172;6.974;2023-08-08T14:34:57;3.78;;;0.73;;
52512;SDS011;38422;53.172;6.974;2023-08-08T14:37:23;3.50;;;0.90;;
52512;SDS011;38422;53.172;6.974;2023-08-08T14:39:48;4.95;;;0.70;;
52512;SDS011;38422;53.172;6.974;2023-08-08T14:42:14;3.33;;;0.70;;
52512;SDS011;38422;53.172;6.974;2023-08-08T14:44:40;3.92;;;0.50;;
52512;SDS011;38422;53.172;6.974;2023-08-08T14:47:05;3.17;;;0.70;;
52512;SDS011;38422;53.172;6.974;2023-08-08T14:49:31;4.93;;;0.93;;
52512;SDS011;38422;53.172;6.974;2023-08-08T14:51:57;2.50;;;0.70;;
52512;SDS011;38422;53.172;6.974;2023-08-08T14:54:23;4.53;;;0.60;;